createdAt,value
2018-10-21T03:14:44.563Z,1015.76
2018-10-21T03:15:44.567Z,1015.74
2018-10-21T03:16:44.562Z,1015.70
2018-10-21T03:17:44.531Z,1015.70
2018-10-21T03:18:44.521Z,1015.72
2018-10-21T03:19:44.494Z,1015.74
2018-10-21T03:20:44.485Z,1015.74
2018-10-21T03:21:44.478Z,1015.73
2018-10-21T03:22:44.467Z,1015.73
2018-10-21T03:23:44.456Z,1015.73
2018-10-21T03:24:44.462Z,1015.80
2018-10-21T03:25:44.453Z,1015.79
2018-10-21T03:26:44.435Z,1015.83
2018-10-21T03:27:44.433Z,1015.83
2018-10-21T03:28:44.430Z,1015.81
2018-10-21T03:29:44.419Z,1015.84
2018-10-21T03:30:44.423Z,1015.87
2018-10-21T03:31:44.397Z,1015.86
2018-10-21T03:32:44.497Z,1015.88
2018-10-21T03:33:44.440Z,1015.89
2018-10-21T03:34:44.376Z,1015.91
2018-10-21T03:35:44.365Z,1015.87
2018-10-21T03:36:44.363Z,1015.93
2018-10-21T03:37:44.377Z,1015.90
2018-10-21T03:38:44.375Z,1015.90
2018-10-21T03:39:44.379Z,1015.84
2018-10-21T03:40:44.332Z,1015.88
2018-10-21T03:41:44.328Z,1015.92
2018-10-21T03:42:44.340Z,1015.93
2018-10-21T03:43:44.324Z,1015.94
2018-10-21T03:44:44.304Z,1015.93
2018-10-21T03:45:44.307Z,1015.95
2018-10-21T03:46:44.316Z,1015.96
2018-10-21T03:47:44.313Z,1016.00
2018-10-21T03:48:44.276Z,1016.02
2018-10-21T03:49:44.262Z,1016.01
2018-10-21T03:50:44.259Z,1016.02
2018-10-21T03:51:44.245Z,1016.03
2018-10-21T03:52:44.249Z,1016.05
2018-10-21T03:53:44.248Z,1016.04
2018-10-21T03:54:44.225Z,1016.08
2018-10-21T03:55:44.249Z,1016.08
2018-10-21T03:56:44.215Z,1016.14
2018-10-21T03:57:44.217Z,1016.15
2018-10-21T03:58:44.203Z,1016.15
2018-10-21T03:59:44.192Z,1016.15
2018-10-21T04:00:44.212Z,1016.14
2018-10-21T04:01:44.172Z,1016.16
2018-10-21T04:02:44.168Z,1016.16
2018-10-21T04:03:44.217Z,1016.12
2018-10-21T04:04:44.162Z,1016.17
2018-10-21T04:05:44.145Z,1016.15
2018-10-21T04:06:44.150Z,1016.16
2018-10-21T04:07:44.133Z,1016.11
2018-10-21T04:08:44.132Z,1016.16
2018-10-21T04:09:44.112Z,1016.14
2018-10-21T04:10:44.118Z,1016.17
2018-10-21T04:11:44.103Z,1016.13
2018-10-21T04:12:44.103Z,1016.12
2018-10-21T04:13:44.081Z,1016.15
2018-10-21T04:14:44.089Z,1016.12
2018-10-21T04:15:44.078Z,1016.13
2018-10-21T04:16:44.053Z,1016.11
2018-10-21T04:17:44.049Z,1016.09
2018-10-21T04:18:44.051Z,1016.11
2018-10-21T04:19:44.038Z,1016.10
2018-10-21T04:20:44.029Z,1016.11
2018-10-21T04:21:44.035Z,1016.15
2018-10-21T04:22:44.010Z,1016.13
2018-10-21T04:23:44.006Z,1016.14
2018-10-21T04:24:43.998Z,1016.13
2018-10-21T04:25:43.998Z,1016.12
2018-10-21T04:26:43.979Z,1016.15
2018-10-21T04:27:43.985Z,1016.15
2018-10-21T04:28:43.977Z,1016.17
2018-10-21T04:29:43.970Z,1016.12
2018-10-21T04:30:44.054Z,1016.15
2018-10-21T04:31:43.968Z,1016.14
2018-10-21T04:32:44.031Z,1016.17
2018-10-21T04:33:43.951Z,1016.21
2018-10-21T04:34:43.930Z,1016.17
2018-10-21T04:35:43.928Z,1016.19
2018-10-21T04:36:43.898Z,1016.15
2018-10-21T04:37:43.894Z,1016.16
2018-10-21T04:38:43.901Z,1016.18
2018-10-21T04:39:43.886Z,1016.16
2018-10-21T04:40:43.875Z,1016.16
2018-10-21T04:41:43.957Z,1016.13
2018-10-21T04:42:43.856Z,1016.11
2018-10-21T04:43:43.856Z,1016.12
2018-10-21T04:44:43.833Z,1016.13
2018-10-21T04:45:43.828Z,1016.12
2018-10-21T04:46:43.913Z,1016.10
2018-10-21T04:47:43.823Z,1016.06
2018-10-21T04:48:43.804Z,1016.06
2018-10-21T04:49:43.823Z,1016.05
2018-10-21T04:50:43.790Z,1016.01
2018-10-21T04:51:43.783Z,1016.01
2018-10-21T04:52:43.773Z,1016.00
2018-10-21T04:53:43.775Z,1015.95
2018-10-21T04:54:43.774Z,1015.97
2018-10-21T04:55:43.808Z,1015.96
2018-10-21T04:56:43.746Z,1015.93
2018-10-21T04:57:43.730Z,1015.90
2018-10-21T04:58:43.726Z,1015.91
2018-10-21T04:59:43.723Z,1015.90
2018-10-21T05:00:43.793Z,1015.89
2018-10-21T05:01:43.712Z,1015.87
2018-10-21T05:02:43.701Z,1015.88
2018-10-21T05:03:43.716Z,1015.85
2018-10-21T05:04:43.762Z,1015.84
2018-10-21T05:05:43.726Z,1015.82
2018-10-21T05:06:43.696Z,1015.80
2018-10-21T05:07:43.772Z,1015.79
2018-10-21T05:08:43.663Z,1015.78
2018-10-21T05:09:43.757Z,1015.80
2018-10-21T05:10:43.756Z,1015.81
2018-10-21T05:11:43.665Z,1015.78
2018-10-21T05:12:43.677Z,1015.79
2018-10-21T05:13:43.642Z,1015.81
2018-10-21T05:14:43.633Z,1015.81
2018-10-21T05:15:43.684Z,1015.80
2018-10-21T05:16:43.645Z,1015.76
2018-10-21T05:17:43.597Z,1015.71
2018-10-21T05:18:43.653Z,1015.68
2018-10-21T05:19:43.593Z,1015.70
2018-10-21T05:20:43.585Z,1015.67
2018-10-21T05:21:43.624Z,1015.67
2018-10-21T05:22:43.570Z,1015.68
2018-10-21T05:23:43.576Z,1015.71
2018-10-21T05:24:43.602Z,1015.70
2018-10-21T05:25:43.572Z,1015.69
2018-10-21T05:26:43.573Z,1015.70
2018-10-21T05:27:43.508Z,1015.67
2018-10-21T05:28:43.529Z,1015.72
2018-10-21T05:29:43.508Z,1015.66
2018-10-21T05:30:43.495Z,1015.70
2018-10-21T05:31:43.598Z,1015.68
2018-10-21T05:32:43.563Z,1015.68
2018-10-21T05:33:43.459Z,1015.67
2018-10-21T05:34:43.506Z,1015.65
2018-10-21T05:35:43.444Z,1015.70
2018-10-21T05:36:43.456Z,1015.68
2018-10-21T05:37:43.495Z,1015.67
2018-10-21T05:38:43.450Z,1015.63
2018-10-21T05:39:43.444Z,1015.64
2018-10-21T05:40:43.481Z,1015.63
2018-10-21T05:41:43.402Z,1015.64
2018-10-21T05:42:43.409Z,1015.66
2018-10-21T05:43:43.392Z,1015.66
2018-10-21T05:44:43.375Z,1015.66
2018-10-21T05:45:43.378Z,1015.67
2018-10-21T05:46:43.401Z,1015.69
2018-10-21T05:47:43.370Z,1015.68
2018-10-21T05:48:43.352Z,1015.68
2018-10-21T05:49:43.349Z,1015.65
2018-10-21T05:50:43.341Z,1015.67
2018-10-21T05:51:43.338Z,1015.65
2018-10-21T05:52:43.327Z,1015.64
2018-10-21T05:53:43.317Z,1015.61
2018-10-21T05:54:43.316Z,1015.63
2018-10-21T05:55:43.302Z,1015.62
2018-10-21T05:56:43.295Z,1015.61
2018-10-21T05:57:43.343Z,1015.60
2018-10-21T05:58:43.282Z,1015.61
2018-10-21T05:59:43.280Z,1015.62
2018-10-21T06:00:43.296Z,1015.62
2018-10-21T06:01:43.277Z,1015.63
2018-10-21T06:02:43.276Z,1015.62
2018-10-21T06:03:43.284Z,1015.64
2018-10-21T06:04:43.229Z,1015.64
2018-10-21T06:05:43.225Z,1015.65
2018-10-21T06:06:43.221Z,1015.64
2018-10-21T06:07:43.227Z,1015.70
2018-10-21T06:08:43.204Z,1015.69
2018-10-21T06:09:43.185Z,1015.73
2018-10-21T06:10:43.183Z,1015.71
2018-10-21T06:11:43.179Z,1015.74
2018-10-21T06:12:43.161Z,1015.74
2018-10-21T06:13:43.163Z,1015.75
2018-10-21T06:14:43.151Z,1015.72
2018-10-21T06:15:43.181Z,1015.75
2018-10-21T06:16:43.133Z,1015.80
2018-10-21T06:17:43.134Z,1015.79
2018-10-21T06:18:43.127Z,1015.82
2018-10-21T06:19:43.110Z,1015.82
2018-10-21T06:20:43.102Z,1015.81
2018-10-21T06:21:43.104Z,1015.83
2018-10-21T06:22:43.085Z,1015.89
2018-10-21T06:23:43.109Z,1015.87
2018-10-21T06:24:43.064Z,1015.85
2018-10-21T06:25:43.057Z,1015.87
2018-10-21T06:26:43.062Z,1015.85
2018-10-21T06:27:43.058Z,1015.84
2018-10-21T06:28:43.046Z,1015.86
2018-10-21T06:29:43.119Z,1015.88
2018-10-21T06:30:43.026Z,1015.90
2018-10-21T06:31:43.005Z,1015.92
2018-10-21T06:32:43.002Z,1015.89
2018-10-21T06:33:43.053Z,1015.95
2018-10-21T06:34:42.980Z,1015.94
2018-10-21T06:35:42.991Z,1015.98
2018-10-21T06:36:43.053Z,1015.96
2018-10-21T06:37:42.964Z,1015.99
2018-10-21T06:38:42.949Z,1016.01
2018-10-21T06:39:42.947Z,1016.00
2018-10-21T06:40:42.945Z,1016.02
2018-10-21T06:41:42.961Z,1015.99
2018-10-21T06:42:42.927Z,1016.01
2018-10-21T06:43:42.919Z,1016.02
2018-10-21T06:44:42.916Z,1016.03
2018-10-21T06:45:43.096Z,1016.06
2018-10-21T06:46:42.933Z,1016.07
2018-10-21T06:47:42.883Z,1016.03
2018-10-21T06:48:42.884Z,1016.07
2018-10-21T06:49:42.947Z,1015.97
2018-10-21T06:50:42.934Z,1015.96
2018-10-21T06:51:42.870Z,1015.92
2018-10-21T06:52:42.860Z,1015.96
2018-10-21T06:53:42.890Z,1015.98
2018-10-21T06:54:42.898Z,1016.03
2018-10-21T06:55:42.827Z,1016.03
2018-10-21T06:56:42.904Z,1016.00
2018-10-21T06:57:42.866Z,1015.99
2018-10-21T06:58:42.892Z,1016.00
2018-10-21T06:59:42.874Z,1016.01
2018-10-21T07:00:42.779Z,1016.07
2018-10-21T07:01:42.773Z,1016.08
2018-10-21T07:02:42.798Z,1016.09
2018-10-21T07:03:42.795Z,1016.12
2018-10-21T07:04:42.897Z,1016.13
2018-10-21T07:05:42.734Z,1016.16
2018-10-21T07:06:42.728Z,1016.17
2018-10-21T07:07:42.719Z,1016.17
2018-10-21T07:08:42.720Z,1016.22
2018-10-21T07:09:42.699Z,1016.26
2018-10-21T07:10:42.703Z,1016.29
2018-10-21T07:11:42.687Z,1016.35
2018-10-21T07:12:42.684Z,1016.40
2018-10-21T07:13:42.678Z,1016.41
2018-10-21T07:14:42.683Z,1016.41
2018-10-21T07:15:42.734Z,1016.41
2018-10-21T07:16:42.681Z,1016.42
2018-10-21T07:17:42.648Z,1016.40
2018-10-21T07:18:42.638Z,1016.38
2018-10-21T07:19:42.635Z,1016.37
2018-10-21T07:20:42.619Z,1016.40
2018-10-21T07:21:42.615Z,1016.41
2018-10-21T07:22:42.607Z,1016.39
2018-10-21T07:23:42.599Z,1016.35
2018-10-21T07:24:42.610Z,1016.36
2018-10-21T07:25:42.587Z,1016.42
2018-10-21T07:26:42.576Z,1016.42
2018-10-21T07:27:42.569Z,1016.43
2018-10-21T07:28:42.566Z,1016.42
2018-10-21T07:29:42.552Z,1016.44
2018-10-21T07:30:42.563Z,1016.42
2018-10-21T07:31:42.539Z,1016.41
2018-10-21T07:32:42.536Z,1016.42
2018-10-21T07:33:42.528Z,1016.45
2018-10-21T07:34:42.511Z,1016.45
2018-10-21T07:35:42.512Z,1016.45
2018-10-21T07:36:42.516Z,1016.43
2018-10-21T07:37:42.513Z,1016.47
2018-10-21T07:38:42.557Z,1016.52
2018-10-21T07:39:42.478Z,1016.51
2018-10-21T07:40:42.472Z,1016.51
2018-10-21T07:41:42.493Z,1016.51
2018-10-21T07:42:42.454Z,1016.46
2018-10-21T07:43:42.451Z,1016.44
2018-10-21T07:44:42.448Z,1016.45
2018-10-21T07:45:42.445Z,1016.44
2018-10-21T07:46:42.428Z,1016.45
2018-10-21T07:47:42.417Z,1016.46
2018-10-21T07:48:42.420Z,1016.50
2018-10-21T07:49:42.411Z,1016.50
2018-10-21T07:50:42.433Z,1016.47
2018-10-21T07:51:42.425Z,1016.46
2018-10-21T07:52:42.382Z,1016.49
2018-10-21T07:53:42.368Z,1016.50
2018-10-21T07:54:42.369Z,1016.52
2018-10-21T07:55:42.415Z,1016.50
2018-10-21T07:56:42.355Z,1016.50
2018-10-21T07:57:42.344Z,1016.42
2018-10-21T07:58:42.346Z,1016.46
2018-10-21T07:59:42.335Z,1016.48
2018-10-21T08:00:42.320Z,1016.49
2018-10-21T08:01:51.656Z,1016.49
2018-10-21T08:03:35.736Z,1016.49
2018-10-21T08:04:35.696Z,1016.47
2018-10-21T08:05:35.693Z,1016.43
2018-10-21T08:06:35.742Z,1016.45
2018-10-21T08:07:35.673Z,1016.52
2018-10-21T08:08:35.673Z,1016.44
2018-10-21T08:09:35.661Z,1016.44
2018-10-21T08:10:35.650Z,1016.43
2018-10-21T08:11:35.663Z,1016.40
2018-10-21T08:12:35.740Z,1016.41
2018-10-21T08:13:35.644Z,1016.43
2018-10-21T08:14:35.715Z,1016.43
2018-10-21T08:15:35.627Z,1016.43
2018-10-21T08:16:35.616Z,1016.41
2018-10-21T08:17:35.632Z,1016.42
2018-10-21T08:18:35.628Z,1016.35
2018-10-21T08:19:35.612Z,1016.33
2018-10-21T08:20:35.582Z,1016.34
2018-10-21T08:21:35.662Z,1016.37
2018-10-21T08:22:35.620Z,1016.33
2018-10-21T08:23:35.595Z,1016.34
2018-10-21T08:24:35.569Z,1016.34
2018-10-21T08:25:35.637Z,1016.35
2018-10-21T08:26:35.552Z,1016.36
2018-10-21T08:27:35.578Z,1016.36
2018-10-21T08:28:35.591Z,1016.32
2018-10-21T08:29:35.526Z,1016.35
2018-10-21T08:30:35.579Z,1016.34
2018-10-21T08:31:35.520Z,1016.34
2018-10-21T08:32:35.506Z,1016.32
2018-10-21T08:33:35.508Z,1016.32
2018-10-21T08:34:35.541Z,1016.32
2018-10-21T08:35:35.534Z,1016.30
2018-10-21T08:36:35.514Z,1016.33
2018-10-21T08:37:35.501Z,1016.28
2018-10-21T08:38:35.481Z,1016.32
2018-10-21T08:39:35.458Z,1016.27
2018-10-21T08:40:35.451Z,1016.26
2018-10-21T08:41:35.446Z,1016.23
2018-10-21T08:42:35.446Z,1016.28
2018-10-21T08:43:35.434Z,1016.24
2018-10-21T08:44:35.440Z,1016.23
2018-10-21T08:45:35.417Z,1016.21
2018-10-21T08:46:35.477Z,1016.22
2018-10-21T08:47:35.408Z,1016.22
2018-10-21T08:48:35.404Z,1016.20
2018-10-21T08:49:35.394Z,1016.23
2018-10-21T08:50:35.402Z,1016.23
2018-10-21T08:51:35.377Z,1016.22
2018-10-21T08:52:35.375Z,1016.24
2018-10-21T08:53:35.367Z,1016.25
2018-10-21T08:54:35.362Z,1016.28
2018-10-21T08:55:35.371Z,1016.24
2018-10-21T08:56:35.350Z,1016.22
2018-10-21T08:57:35.485Z,1016.25
2018-10-21T08:58:35.338Z,1016.21
2018-10-21T08:59:35.329Z,1016.20
2018-10-21T09:00:35.329Z,1016.20
2018-10-21T09:01:35.320Z,1016.15
2018-10-21T09:02:35.326Z,1016.18
2018-10-21T09:03:35.387Z,1016.12
2018-10-21T09:04:35.310Z,1016.11
2018-10-21T09:05:35.319Z,1016.08
2018-10-21T09:06:35.368Z,1016.08
2018-10-21T09:07:35.278Z,1016.05
2018-10-21T09:08:35.275Z,1016.05
2018-10-21T09:09:35.279Z,1016.05
2018-10-21T09:10:35.447Z,1016.02
2018-10-21T09:11:35.289Z,1016.00
2018-10-21T09:12:35.291Z,1016.00
2018-10-21T09:13:35.328Z,1015.96
2018-10-21T09:14:35.256Z,1015.95
2018-10-21T09:15:35.346Z,1015.95
2018-10-21T09:16:35.329Z,1015.96
2018-10-21T09:17:35.247Z,1015.91
2018-10-21T09:18:35.265Z,1015.95
2018-10-21T09:19:35.293Z,1015.92
2018-10-21T09:20:35.224Z,1015.94
2018-10-21T09:21:35.394Z,1015.94
2018-10-21T09:22:35.214Z,1015.93
2018-10-21T09:23:35.221Z,1015.96
2018-10-21T09:24:35.253Z,1016.00
2018-10-21T09:25:35.197Z,1015.94
2018-10-21T09:26:35.300Z,1016.00
2018-10-21T09:27:35.171Z,1015.98
2018-10-21T09:28:35.159Z,1015.97
2018-10-21T09:29:35.186Z,1015.96
2018-10-21T09:30:35.212Z,1015.95
2018-10-21T09:31:35.236Z,1015.99
2018-10-21T09:32:35.133Z,1015.97
2018-10-21T09:33:35.136Z,1015.95
2018-10-21T09:34:35.234Z,1015.96
2018-10-21T09:35:35.171Z,1015.94
2018-10-21T09:36:35.131Z,1015.99
2018-10-21T09:37:35.133Z,1015.98
2018-10-21T09:38:35.141Z,1015.97
2018-10-21T09:39:35.101Z,1015.94
2018-10-21T09:40:35.100Z,1015.94
2018-10-21T09:41:35.095Z,1015.92
2018-10-21T09:42:35.079Z,1015.95
2018-10-21T09:43:35.075Z,1016.00
2018-10-21T09:44:35.091Z,1015.92
2018-10-21T09:45:35.071Z,1015.91
2018-10-21T09:46:35.080Z,1016.03
2018-10-21T09:47:35.193Z,1015.92
2018-10-21T09:48:35.046Z,1015.88
2018-10-21T09:49:35.163Z,1015.90
2018-10-21T09:50:35.036Z,1015.93
2018-10-21T09:51:35.044Z,1015.94
2018-10-21T09:52:35.042Z,1015.96
2018-10-21T09:53:35.061Z,1015.92
2018-10-21T09:54:35.034Z,1015.95
2018-10-21T09:55:35.012Z,1015.96
2018-10-21T09:56:35.061Z,1015.89
2018-10-21T09:57:35.066Z,1015.93
2018-10-21T09:58:35.104Z,1015.95
2018-10-21T09:59:34.994Z,1015.85
2018-10-21T10:00:35.070Z,1015.86
2018-10-21T10:01:35.036Z,1015.87
2018-10-21T10:02:35.012Z,1015.87
2018-10-21T10:03:35.027Z,1015.85
2018-10-21T10:04:34.968Z,1015.84
2018-10-21T10:05:34.961Z,1015.84
2018-10-21T10:06:35.058Z,1015.82
2018-10-21T10:07:34.950Z,1015.83
2018-10-21T10:08:34.953Z,1015.83
2018-10-21T10:09:34.945Z,1015.76
2018-10-21T10:10:34.949Z,1015.75
2018-10-21T10:11:34.948Z,1015.77
2018-10-21T10:12:34.948Z,1015.75
2018-10-21T10:13:34.928Z,1015.71
2018-10-21T10:14:34.956Z,1015.71
2018-10-21T10:15:34.923Z,1015.74
2018-10-21T10:16:34.932Z,1015.71
2018-10-21T10:17:34.958Z,1015.71
2018-10-21T10:18:34.904Z,1015.68
2018-10-21T10:19:34.892Z,1015.69
2018-10-21T10:20:34.909Z,1015.67
2018-10-21T10:21:34.921Z,1015.71
2018-10-21T10:22:34.916Z,1015.66
2018-10-21T10:23:34.985Z,1015.62
2018-10-21T10:24:34.876Z,1015.64
2018-10-21T10:25:34.872Z,1015.63
2018-10-21T10:26:34.873Z,1015.60
2018-10-21T10:27:34.904Z,1015.59
2018-10-21T10:28:35.169Z,1015.63
2018-10-21T10:29:34.898Z,1015.61
2018-10-21T10:30:34.938Z,1015.66
2018-10-21T10:31:34.877Z,1015.66
2018-10-21T10:32:34.838Z,1015.57
2018-10-21T10:33:34.893Z,1015.61
2018-10-21T10:34:34.828Z,1015.56
2018-10-21T10:35:34.826Z,1015.51
2018-10-21T10:36:34.825Z,1015.55
2018-10-21T10:37:34.821Z,1015.51
2018-10-21T10:38:34.850Z,1015.50
2018-10-21T10:39:34.848Z,1015.48
2018-10-21T10:40:34.802Z,1015.34
2018-10-21T10:41:34.843Z,1015.50
2018-10-21T10:42:34.792Z,1015.44
2018-10-21T10:43:34.789Z,1015.43
2018-10-21T10:44:34.778Z,1015.38
2018-10-21T10:45:34.779Z,1015.36
2018-10-21T10:46:34.841Z,1015.26
2018-10-21T10:47:34.775Z,1015.26
2018-10-21T10:48:34.796Z,1015.25
2018-10-21T10:49:34.798Z,1015.24
2018-10-21T10:50:34.766Z,1015.25
2018-10-21T10:51:34.754Z,1015.31
2018-10-21T10:52:34.747Z,1015.27
2018-10-21T10:53:34.747Z,1015.24
2018-10-21T10:54:34.754Z,1015.29
2018-10-21T10:55:34.749Z,1015.20
2018-10-21T10:56:34.777Z,1015.23
2018-10-21T10:57:34.783Z,1015.23
2018-10-21T10:58:34.754Z,1015.16
2018-10-21T10:59:34.762Z,1015.11
2018-10-21T11:00:34.733Z,1015.23
2018-10-21T11:01:34.711Z,1015.17
2018-10-21T11:02:34.721Z,1015.18
2018-10-21T11:03:34.702Z,1015.19
2018-10-21T11:04:34.711Z,1015.08
2018-10-21T11:05:34.729Z,1015.14
2018-10-21T11:06:34.703Z,1015.11
2018-10-21T11:07:34.831Z,1015.08
2018-10-21T11:08:34.682Z,1015.07
2018-10-21T11:09:34.721Z,1015.07
2018-10-21T11:10:34.677Z,1015.01
2018-10-21T11:11:34.682Z,1015.03
2018-10-21T11:12:34.747Z,1015.03
2018-10-21T11:13:34.670Z,1015.01
2018-10-21T11:14:34.726Z,1014.98
2018-10-21T11:15:34.672Z,1014.98
2018-10-21T11:16:34.671Z,1015.01
2018-10-21T11:17:34.669Z,1014.96
2018-10-21T11:18:34.666Z,1014.96
2018-10-21T11:19:34.660Z,1014.93
2018-10-21T11:20:34.640Z,1015.04
2018-10-21T11:21:34.651Z,1014.89
2018-10-21T11:22:34.691Z,1014.87
2018-10-21T11:23:34.635Z,1014.83
2018-10-21T11:24:34.635Z,1014.85
2018-10-21T11:25:34.640Z,1014.87
2018-10-21T11:26:34.623Z,1014.86
2018-10-21T11:27:34.622Z,1014.76
2018-10-21T11:28:34.629Z,1014.78
2018-10-21T11:29:34.618Z,1014.88
2018-10-21T11:30:34.609Z,1014.83
2018-10-21T11:31:34.606Z,1014.77
2018-10-21T11:32:34.604Z,1014.71
2018-10-21T11:33:34.598Z,1014.76
2018-10-21T11:34:34.613Z,1014.75
2018-10-21T11:35:34.594Z,1014.75
2018-10-21T11:36:34.637Z,1014.73
2018-10-21T11:37:34.602Z,1014.75
2018-10-21T11:38:34.630Z,1014.66
2018-10-21T11:39:34.584Z,1014.69
2018-10-21T11:40:34.574Z,1014.73
2018-10-21T11:41:34.578Z,1014.66
2018-10-21T11:42:34.574Z,1014.66
2018-10-21T11:43:34.571Z,1014.64
2018-10-21T11:44:34.563Z,1014.66
2018-10-21T11:45:34.586Z,1014.58
2018-10-21T11:46:34.673Z,1014.60
2018-10-21T11:47:34.570Z,1014.60
2018-10-21T11:48:34.551Z,1014.62
2018-10-21T11:49:34.550Z,1014.58
2018-10-21T11:50:34.601Z,1014.60
2018-10-21T11:51:34.550Z,1014.60
2018-10-21T11:52:34.659Z,1014.54
2018-10-21T11:53:34.543Z,1014.59
2018-10-21T11:54:34.555Z,1014.59
2018-10-21T11:55:34.643Z,1014.65
2018-10-21T11:56:34.535Z,1014.59
2018-10-21T11:57:34.549Z,1014.48
2018-10-21T11:58:34.568Z,1014.65
2018-10-21T11:59:34.524Z,1014.57
2018-10-21T12:00:34.549Z,1014.48
2018-10-21T12:01:34.513Z,1014.46
2018-10-21T12:02:34.516Z,1014.45
2018-10-21T12:03:34.522Z,1014.48
2018-10-21T12:04:34.514Z,1014.37
2018-10-21T12:05:34.502Z,1014.46
2018-10-21T12:06:34.504Z,1014.38
2018-10-21T12:07:34.529Z,1014.41
2018-10-21T12:08:34.498Z,1014.43
2018-10-21T12:09:34.502Z,1014.33
2018-10-21T12:10:34.491Z,1014.43
2018-10-21T12:11:34.531Z,1014.47
2018-10-21T12:12:34.485Z,1014.43
2018-10-21T12:13:34.488Z,1014.45
2018-10-21T12:14:34.484Z,1014.41
2018-10-21T12:15:34.500Z,1014.46
2018-10-21T12:16:34.489Z,1014.45
2018-10-21T12:17:34.469Z,1014.36
2018-10-21T12:18:34.537Z,1014.41
2018-10-21T12:19:34.516Z,1014.36
2018-10-21T12:20:34.473Z,1014.34
2018-10-21T12:21:34.465Z,1014.41
2018-10-21T12:22:34.617Z,1014.33
2018-10-21T12:23:34.667Z,1014.36
2018-10-21T12:24:34.496Z,1014.33
2018-10-21T12:25:34.475Z,1014.30
2018-10-21T12:26:34.459Z,1014.30
2018-10-21T12:27:34.462Z,1014.29
2018-10-21T12:28:34.450Z,1014.27
2018-10-21T12:29:34.459Z,1014.38
2018-10-21T12:30:34.451Z,1014.30
2018-10-21T12:31:34.444Z,1014.29
2018-10-21T12:32:34.450Z,1014.19
2018-10-21T12:33:34.476Z,1014.27
2018-10-21T12:34:34.519Z,1014.25
2018-10-21T12:35:34.430Z,1014.28
2018-10-21T12:36:34.425Z,1014.16
2018-10-21T12:37:34.423Z,1014.18
2018-10-21T12:38:34.430Z,1014.16
2018-10-21T12:39:34.420Z,1014.16
2018-10-21T12:40:34.444Z,1014.24
2018-10-21T12:41:34.435Z,1014.17
2018-10-21T12:42:34.437Z,1014.11
2018-10-21T12:43:34.416Z,1014.10
2018-10-21T12:44:34.468Z,1014.08
2018-10-21T12:45:34.483Z,1014.14
2018-10-21T12:46:34.404Z,1014.03
2018-10-21T12:47:34.416Z,1014.06
2018-10-21T12:48:34.409Z,1014.22
2018-10-21T12:49:34.448Z,1014.11
2018-10-21T12:50:34.448Z,1014.08
2018-10-21T12:51:34.396Z,1014.09
2018-10-21T12:52:34.396Z,1014.10
2018-10-21T12:53:34.420Z,1014.09
2018-10-21T12:54:34.470Z,1014.08
2018-10-21T12:55:34.400Z,1014.05
2018-10-21T12:56:34.387Z,1014.07
2018-10-21T12:57:34.444Z,1014.01
2018-10-21T12:58:34.391Z,1013.99
2018-10-21T12:59:34.381Z,1014.01
2018-10-21T13:00:34.381Z,1014.00
2018-10-21T13:01:34.380Z,1014.03
2018-10-21T13:02:34.376Z,1014.02
2018-10-21T13:03:34.376Z,1013.96
2018-10-21T13:04:34.373Z,1014.04
2018-10-21T13:05:34.369Z,1014.02
2018-10-21T13:06:34.372Z,1013.98
2018-10-21T13:07:34.385Z,1013.98
2018-10-21T13:08:34.369Z,1014.07
2018-10-21T13:09:34.357Z,1014.00
2018-10-21T13:10:34.356Z,1014.01
2018-10-21T13:11:34.355Z,1014.00
2018-10-21T13:12:34.356Z,1013.95
2018-10-21T13:13:34.360Z,1014.02
2018-10-21T13:14:34.350Z,1014.05
2018-10-21T13:15:34.360Z,1014.04
2018-10-21T13:16:34.349Z,1014.00
2018-10-21T13:17:34.367Z,1014.03
2018-10-21T13:18:34.340Z,1013.97
2018-10-21T13:19:34.374Z,1013.96
2018-10-21T13:20:34.343Z,1014.02
2018-10-21T13:21:34.359Z,1013.99
2018-10-21T13:22:34.332Z,1014.01
2018-10-21T13:23:34.333Z,1014.06
2018-10-21T13:24:34.332Z,1014.00
2018-10-21T13:25:34.331Z,1013.90
2018-10-21T13:26:34.358Z,1013.94
2018-10-21T13:27:34.332Z,1013.92
2018-10-21T13:28:34.324Z,1013.96
2018-10-21T13:29:34.327Z,1013.86
2018-10-21T13:30:34.318Z,1013.84
2018-10-21T13:31:34.318Z,1013.80
2018-10-21T13:32:34.314Z,1013.84
2018-10-21T13:33:34.315Z,1013.78
2018-10-21T13:34:34.368Z,1013.74
2018-10-21T13:35:34.314Z,1013.82
2018-10-21T13:36:34.311Z,1013.81
2018-10-21T13:37:34.312Z,1013.83
2018-10-21T13:38:34.307Z,1013.90
2018-10-21T13:39:34.314Z,1013.85
2018-10-21T13:40:34.389Z,1013.79
2018-10-21T13:41:34.349Z,1013.78
2018-10-21T13:42:34.343Z,1013.80
2018-10-21T13:43:34.300Z,1013.72
2018-10-21T13:44:34.331Z,1013.72
2018-10-21T13:45:34.302Z,1013.68
2018-10-21T13:46:34.288Z,1013.72
2018-10-21T13:47:34.296Z,1013.83
2018-10-21T13:48:34.289Z,1013.78
2018-10-21T13:49:34.291Z,1013.77
2018-10-21T13:50:34.304Z,1013.71
2018-10-21T13:51:34.304Z,1013.71
2018-10-21T13:52:34.355Z,1013.78
2018-10-21T13:53:34.380Z,1013.71
2018-10-21T13:54:34.277Z,1013.72
2018-10-21T13:55:34.340Z,1013.75
2018-10-21T13:56:34.280Z,1013.69
2018-10-21T13:57:34.302Z,1013.62
2018-10-21T13:58:34.320Z,1013.65
2018-10-21T13:59:34.289Z,1013.66
2018-10-21T14:00:34.335Z,1013.64
2018-10-21T14:01:34.324Z,1013.64
2018-10-21T14:02:34.288Z,1013.59
2018-10-21T14:03:34.267Z,1013.64
2018-10-21T14:04:34.285Z,1013.63
2018-10-21T14:05:34.285Z,1013.65
2018-10-21T14:06:34.274Z,1013.59
2018-10-21T14:07:34.263Z,1013.58
2018-10-21T14:08:34.262Z,1013.54
2018-10-21T14:09:34.257Z,1013.54
2018-10-21T14:10:34.252Z,1013.54
2018-10-21T14:11:34.250Z,1013.52
2018-10-21T14:12:34.248Z,1013.55
2018-10-21T14:13:34.255Z,1013.55
2018-10-21T14:14:34.245Z,1013.58
2018-10-21T14:15:34.255Z,1013.53
2018-10-21T14:16:34.353Z,1013.54
2018-10-21T14:17:34.250Z,1013.50
2018-10-21T14:18:34.320Z,1013.55
2018-10-21T14:19:34.236Z,1013.54
2018-10-21T14:20:34.237Z,1013.54
2018-10-21T14:21:34.239Z,1013.50
2018-10-21T14:22:34.237Z,1013.49
2018-10-21T14:23:34.246Z,1013.47
2018-10-21T14:24:34.329Z,1013.51
2018-10-21T14:25:34.231Z,1013.47
2018-10-21T14:26:34.236Z,1013.47
2018-10-21T14:27:34.306Z,1013.44
2018-10-21T14:28:34.228Z,1013.40
2018-10-21T14:29:34.224Z,1013.40
2018-10-21T14:30:34.329Z,1013.42
2018-10-21T14:31:34.222Z,1013.44
2018-10-21T14:32:34.226Z,1013.41
2018-10-21T14:33:34.222Z,1013.39
2018-10-21T14:34:34.212Z,1013.38
2018-10-21T14:35:34.213Z,1013.41
2018-10-21T14:36:34.221Z,1013.40
2018-10-21T14:37:34.214Z,1013.37
2018-10-21T14:38:34.283Z,1013.40
2018-10-21T14:39:34.213Z,1013.39
2018-10-21T14:40:34.227Z,1013.36
2018-10-21T14:41:34.206Z,1013.31
2018-10-21T14:42:34.216Z,1013.32
2018-10-21T14:43:34.214Z,1013.32
2018-10-21T14:44:34.208Z,1013.30
2018-10-21T14:45:34.272Z,1013.34
2018-10-21T14:46:34.199Z,1013.33
2018-10-21T14:47:34.208Z,1013.37
2018-10-21T14:48:34.196Z,1013.34
2018-10-21T14:49:34.223Z,1013.35
2018-10-21T14:50:34.208Z,1013.32
2018-10-21T14:51:34.199Z,1013.29
2018-10-21T14:52:34.206Z,1013.25
2018-10-21T14:53:34.216Z,1013.24
2018-10-21T14:54:34.198Z,1013.24
2018-10-21T14:55:34.208Z,1013.25
2018-10-21T14:56:34.184Z,1013.29
2018-10-21T14:57:34.191Z,1013.32
2018-10-21T14:58:34.192Z,1013.28
2018-10-21T14:59:34.190Z,1013.26
2018-10-21T15:00:34.342Z,1013.23
2018-10-21T15:01:34.182Z,1013.20
2018-10-21T15:02:34.183Z,1013.19
2018-10-21T15:03:34.235Z,1013.17
2018-10-21T15:04:34.173Z,1013.15
2018-10-21T15:05:34.185Z,1013.15
2018-10-21T15:06:34.173Z,1013.13
2018-10-21T15:07:34.195Z,1013.15
2018-10-21T15:08:34.200Z,1013.17
2018-10-21T15:09:34.177Z,1013.14
2018-10-21T15:10:34.222Z,1013.15
2018-10-21T15:11:34.200Z,1013.17
2018-10-21T15:12:34.165Z,1013.13
2018-10-21T15:13:34.166Z,1013.13
2018-10-21T15:14:34.172Z,1013.10
2018-10-21T15:15:34.219Z,1013.09
2018-10-21T15:16:34.168Z,1013.09
2018-10-21T15:17:34.169Z,1013.07
2018-10-21T15:18:34.159Z,1013.06
2018-10-21T15:19:34.179Z,1013.08
2018-10-21T15:20:34.173Z,1013.09